Time;durP1;ratioP1;P1;durP2;ratioP2;P2;SDS_P1;SDS_P2;PMS_P1;PMS_P2;Temp;Humidity;BMP_temperature;BMP_pressure;BME280_temperature;BME280_humidity;BME280_pressure;Samples;Min_cycle;Max_cycle;Signal;HPM_P1;HPM_P2
2022/01/16 00:00:03;;;;;;;22.33;12.68;;;1.70;90.90;;;;;;4974650;28;20201;-68
2022/01/16 00:05:12;;;;;;;18.80;10.45;;;1.70;90.90;;;;;;4992653;28;20734;-66
2022/01/16 00:07:43;;;;;;;17.33;10.93;;;1.70;90.70;;;;;;4992124;28;20313;-66
2022/01/16 00:10:21;;;;;;;19.70;12.02;;;1.70;90.60;;;;;;4992641;28;20204;-66
2022/01/16 00:12:52;;;;;;;23.60;12.38;;;1.70;90.50;;;;;;4991319;28;20195;-66
2022/01/16 00:15:29;;;;;;;17.10;10.07;;;1.70;90.40;;;;;;4987768;28;20284;-66
2022/01/16 00:18:10;;;;;;;28.35;12.55;;;1.60;90.50;;;;;;4994004;28;20604;-67
2022/01/16 00:20:39;;;;;;;20.85;11.95;;;1.70;90.40;;;;;;4993862;28;20192;-66
2022/01/16 00:23:10;;;;;;;18.75;11.52;;;1.60;89.90;;;;;;4993347;28;20229;-66
2022/01/16 00:25:38;;;;;;;19.95;11.50;;;1.50;90.30;;;;;;4978849;28;20281;-66
2022/01/16 00:28:05;;;;;;;27.23;10.80;;;1.50;90.40;;;;;;4974467;28;20217;-66
2022/01/16 00:30:43;;;;;;;20.55;12.38;;;1.40;90.40;;;;;;4985948;28;20189;-67
2022/01/16 00:33:14;;;;;;;23.40;12.15;;;1.40;90.50;;;;;;4993709;28;20200;-66
2022/01/16 00:35:43;;;;;;;24.33;11.95;;;1.40;90.50;;;;;;4979419;28;20750;-67
2022/01/16 00:38:11;;;;;;;37.55;13.82;;;1.40;90.70;;;;;;4991410;28;20192;-66
2022/01/16 00:40:38;;;;;;;16.77;10.77;;;1.30;90.60;;;;;;4979793;28;20225;-66
2022/01/16 00:46:02;;;;;;;20.67;9.88;;;1.20;90.70;;;;;;4984216;28;20221;-66
2022/01/16 00:48:40;;;;;;;32.47;13.18;;;1.10;90.90;;;;;;4991642;28;20218;-67
2022/01/16 00:51:12;;;;;;;23.45;12.80;;;1.10;91.10;;;;;;4993542;28;20522;-66
2022/01/16 00:53:44;;;;;;;20.98;11.50;;;1.10;91.30;;;;;;4977312;28;20189;-66
2022/01/16 00:56:19;;;;;;;30.42;13.05;;;1.10;91.30;;;;;;4973682;28;20204;-66
2022/01/16 00:59:02;;;;;;;26.27;10.93;;;1.10;91.60;;;;;;4989510;28;20192;-66
2022/01/16 01:01:31;;;;;;;19.60;11.10;;;1.00;91.40;;;;;;4976322;28;20285;-66
2022/01/16 01:04:13;;;;;;;19.58;10.02;;;1.00;91.60;;;;;;4973810;28;20645;-66
2022/01/16 01:06:48;;;;;;;23.92;10.50;;;0.90;91.80;;;;;;4990172;28;20188;-66
2022/01/16 01:09:20;;;;;;;18.00;9.80;;;0.90;91.50;;;;;;4993070;28;20211;-66
2022/01/16 01:11:53;;;;;;;14.40;8.95;;;0.90;91.60;;;;;;4975109;28;20224;-66
2022/01/16 01:14:37;;;;;;;15.10;9.40;;;0.80;91.80;;;;;;4973252;28;20194;-66
2022/01/16 01:17:34;;;;;;;17.17;9.73;;;0.90;91.70;;;;;;4992396;28;20193;-66
2022/01/16 01:20:18;;;;;;;19.20;10.75;;;0.90;91.30;;;;;;4986443;28;20207;-66
2022/01/16 01:22:52;;;;;;;14.95;9.68;;;0.80;91.30;;;;;;4980166;28;20220;-69
2022/01/16 01:25:24;;;;;;;15.80;9.18;;;0.90;91.50;;;;;;4992080;28;20199;-66
2022/01/16 01:27:57;;;;;;;17.45;10.40;;;1.00;91.70;;;;;;4992729;28;20228;-66
2022/01/16 01:30:43;;;;;;;15.77;10.13;;;1.00;91.70;;;;;;4992121;28;20201;-67
2022/01/16 01:33:20;;;;;;;15.98;9.57;;;1.10;91.70;;;;;;4991893;28;20275;-66
2022/01/16 01:35:53;;;;;;;17.50;11.43;;;1.10;91.50;;;;;;4992673;28;20196;-66
2022/01/16 01:38:31;;;;;;;19.67;11.45;;;1.10;91.00;;;;;;4992044;28;20207;-66
2022/01/16 01:41:03;;;;;;;18.17;11.35;;;1.10;91.20;;;;;;4992426;28;20193;-66
2022/01/16 01:52:05;;;;;;;18.85;10.18;;;1.10;91.00;;;;;;4977393;28;20207;-66
2022/01/16 01:54:48;;;;;;;15.35;11.65;;;1.20;90.50;;;;;;4992272;28;20200;-66
2022/01/16 01:57:24;;;;;;;18.50;10.02;;;1.20;90.60;;;;;;4991378;28;20388;-67
2022/01/16 01:59:54;;;;;;;15.25;9.05;;;1.10;90.40;;;;;;4992034;28;20594;-67
2022/01/16 02:02:39;;;;;;;21.75;10.40;;;1.00;90.60;;;;;;4992046;28;20193;-66
2022/01/16 02:05:28;;;;;;;12.23;9.27;;;1.00;90.90;;;;;;4991944;28;20268;-66
2022/01/16 02:08:08;;;;;;;22.58;10.07;;;1.00;90.70;;;;;;4991906;28;20224;-66
2022/01/16 02:10:49;;;;;;;14.80;9.13;;;1.00;90.70;;;;;;4991404;28;20885;-66
2022/01/16 02:13:24;;;;;;;16.77;10.73;;;1.00;90.70;;;;;;4992114;28;20204;-67
2022/01/16 02:30:49;;;;;;;17.83;9.30;;;0.80;90.90;;;;;;4976501;28;20192;-66
2022/01/16 02:36:06;;;;;;;15.82;10.05;;;0.70;90.90;;;;;;4972201;28;20201;-66
2022/01/16 02:38:41;;;;;;;17.83;9.77;;;0.60;91.00;;;;;;4977658;28;20193;-73
2022/01/16 02:41:13;;;;;;;16.58;10.68;;;0.60;91.10;;;;;;4991259;28;20690;-66
2022/01/16 02:43:47;;;;;;;17.63;10.27;;;0.50;91.20;;;;;;4990738;28;20189;-66
2022/01/16 02:46:37;;;;;;;17.05;10.75;;;0.50;91.30;;;;;;4991445;28;20193;-67
2022/01/16 02:49:20;;;;;;;19.42;9.65;;;0.60;91.30;;;;;;4971939;28;20419;-66
2022/01/16 02:51:58;;;;;;;20.50;11.20;;;0.50;92.00;;;;;;4972958;28;20200;-66
2022/01/16 02:54:35;;;;;;;12.45;8.27;;;0.60;92.20;;;;;;4990494;28;20279;-66
2022/01/16 02:57:21;;;;;;;14.73;9.70;;;0.60;92.10;;;;;;4994822;28;20267;-66
2022/01/16 02:59:59;;;;;;;14.73;9.45;;;0.70;91.90;;;;;;4995599;28;20193;-66
2022/01/16 03:02:33;;;;;;;17.13;9.95;;;0.80;91.80;;;;;;4994356;28;20188;-66
2022/01/16 03:05:07;;;;;;;12.85;9.18;;;0.80;91.50;;;;;;4995265;28;20200;-66
2022/01/16 03:07:41;;;;;;;17.45;9.98;;;0.80;91.50;;;;;;4994539;28;20216;-67
2022/01/16 03:10:35;;;;;;;15.35;9.55;;;0.80;91.20;;;;;;4995036;28;20211;-66
2022/01/16 03:13:08;;;;;;;14.05;9.00;;;0.90;91.10;;;;;;4994466;28;20649;-66
2022/01/16 03:15:44;;;;;;;13.18;9.18;;;0.90;90.90;;;;;;4994697;28;20669;-66
2022/01/16 03:23:50;;;;;;;15.45;9.82;;;0.90;90.20;;;;;;4993908;28;20224;-66
2022/01/16 03:26:20;;;;;;;12.82;9.85;;;0.90;90.10;;;;;;4982227;28;20186;-67
2022/01/16 03:28:52;;;;;;;15.73;9.57;;;0.90;89.60;;;;;;4974885;28;20225;-67
2022/01/16 03:31:33;;;;;;;15.73;9.45;;;0.90;89.30;;;;;;4986459;28;20258;-67
2022/01/16 03:34:13;;;;;;;17.60;9.27;;;0.90;88.60;;;;;;4994445;28;20204;-66
2022/01/16 03:36:42;;;;;;;26.17;9.68;;;0.80;88.90;;;;;;4980012;28;20284;-66
2022/01/16 03:39:25;;;;;;;15.35;8.82;;;0.70;89.10;;;;;;4974906;28;20661;-67
2022/01/16 03:42:00;;;;;;;15.27;8.35;;;0.70;89.60;;;;;;4989766;28;20276;-67
2022/01/16 03:44:37;;;;;;;11.35;8.40;;;0.60;90.20;;;;;;4988711;28;20196;-66
2022/01/16 03:47:09;;;;;;;11.13;8.25;;;0.60;90.50;;;;;;4974879;28;20235;-66
2022/01/16 03:49:41;;;;;;;17.38;8.93;;;0.60;90.70;;;;;;4984951;28;20228;-66
2022/01/16 03:52:22;;;;;;;15.50;8.25;;;0.60;90.60;;;;;;4994241;28;20197;-66
2022/01/16 03:54:55;;;;;;;15.18;8.85;;;0.60;90.60;;;;;;4981519;28;20189;-67
2022/01/16 03:57:23;;;;;;;13.32;8.60;;;0.60;90.60;;;;;;4974351;28;20225;-66
2022/01/16 03:59:58;;;;;;;18.10;10.63;;;0.70;90.50;;;;;;4985441;28;20276;-66
2022/01/16 04:02:31;;;;;;;14.85;9.07;;;0.70;90.00;;;;;;4994198;28;20218;-66
2022/01/16 04:05:14;;;;;;;15.77;9.40;;;0.70;90.00;;;;;;4981252;28;20193;-70
2022/01/16 04:07:42;;;;;;;14.27;9.63;;;0.60;90.10;;;;;;4974284;28;20308;-66
2022/01/16 04:10:11;;;;;;;12.23;8.50;;;0.50;90.50;;;;;;4987178;28;20624;-66
2022/01/16 04:12:39;;;;;;;14.23;8.65;;;0.50;90.40;;;;;;4986174;28;20194;-66
2022/01/16 04:17:59;;;;;;;13.23;7.63;;;0.60;90.20;;;;;;4983020;28;20578;-66
2022/01/16 04:20:31;;;;;;;13.43;8.00;;;0.70;90.20;;;;;;4993736;28;20279;-66
2022/01/16 04:23:01;;;;;;;11.95;8.55;;;0.70;90.00;;;;;;4992914;28;20221;-66
2022/01/16 04:25:33;;;;;;;13.80;8.43;;;0.70;89.90;;;;;;4993405;28;20197;-66
2022/01/16 04:28:08;;;;;;;12.18;8.20;;;0.70;89.70;;;;;;4992763;28;20216;-68
2022/01/16 04:30:46;;;;;;;11.48;8.23;;;0.70;89.40;;;;;;4993592;28;20259;-66
2022/01/16 04:33:24;;;;;;;15.82;8.75;;;0.80;89.50;;;;;;4993213;28;20197;-66
2022/01/16 04:35:51;;;;;;;18.88;8.95;;;0.80;89.10;;;;;;4993144;28;20207;-66
2022/01/16 04:38:23;;;;;;;15.40;9.07;;;0.70;88.90;;;;;;4993521;28;20193;-67
2022/01/16 04:43:57;;;;;;;16.20;8.85;;;0.70;89.60;;;;;;4993657;28;20324;-66
2022/01/16 04:46:31;;;;;;;16.52;9.85;;;0.70;89.40;;;;;;4992992;28;20184;-66
2022/01/16 04:49:10;;;;;;;13.48;8.38;;;0.70;89.70;;;;;;4993373;28;20227;-66
2022/01/16 04:51:46;;;;;;;17.90;7.82;;;0.70;89.30;;;;;;4992798;28;20240;-66
2022/01/16 04:54:36;;;;;;;16.55;9.63;;;0.70;89.30;;;;;;4993130;28;20201;-66
2022/01/16 04:57:10;;;;;;;16.50;9.02;;;0.70;89.50;;;;;;4992476;28;20193;-66
2022/01/16 04:59:54;;;;;;;12.88;8.63;;;0.70;89.30;;;;;;4992590;28;20192;-66
2022/01/16 05:02:27;;;;;;;16.25;9.38;;;0.70;89.00;;;;;;4993131;28;20231;-67
2022/01/16 05:04:58;;;;;;;14.07;8.88;;;0.70;89.30;;;;;;4992464;28;20610;-66
2022/01/16 05:07:34;;;;;;;13.98;9.10;;;0.70;89.00;;;;;;4993069;28;20201;-66
2022/01/16 05:10:14;;;;;;;15.07;8.93;;;0.70;88.70;;;;;;4992180;28;20214;-66
2022/01/16 05:12:53;;;;;;;21.73;8.73;;;0.70;88.30;;;;;;4992798;28;20208;-66
2022/01/16 05:18:10;;;;;;;14.35;9.25;;;0.60;88.90;;;;;;4992583;28;20606;-66
2022/01/16 05:20:52;;;;;;;17.55;8.82;;;0.60;89.00;;;;;;4992231;28;20348;-66
2022/01/16 05:23:25;;;;;;;11.02;7.70;;;0.60;89.10;;;;;;4991718;28;20212;-66
2022/01/16 05:26:03;;;;;;;13.68;8.93;;;0.60;89.20;;;;;;4992386;28;20192;-70
2022/01/16 05:28:33;;;;;;;20.77;9.43;;;0.50;89.20;;;;;;4992166;28;20221;-66
2022/01/16 05:31:05;;;;;;;15.55;9.95;;;0.50;89.50;;;;;;4992572;28;20193;-66
2022/01/16 05:33:40;;;;;;;18.65;9.18;;;0.50;89.40;;;;;;4991848;28;20189;-66
2022/01/16 05:36:13;;;;;;;16.15;8.57;;;0.40;89.20;;;;;;4992211;28;20203;-66
2022/01/16 05:38:48;;;;;;;16.33;9.05;;;0.40;89.40;;;;;;4991828;28;20188;-66
2022/01/16 05:41:22;;;;;;;18.27;8.20;;;0.30;89.80;;;;;;4991876;28;20235;-66
2022/01/16 05:43:52;;;;;;;24.15;8.73;;;0.20;90.10;;;;;;4991358;28;20272;-66
2022/01/16 05:46:32;;;;;;;23.00;9.60;;;0.20;89.90;;;;;;4991727;28;20272;-66
2022/01/16 05:49:07;;;;;;;17.48;8.82;;;0.20;89.90;;;;;;4991825;28;20807;-66
2022/01/16 05:51:43;;;;;;;23.08;8.45;;;0.00;89.90;;;;;;4991387;28;20756;-66
2022/01/16 05:54:16;;;;;;;19.42;9.23;;;0.00;90.30;;;;;;4992090;28;20201;-68
2022/01/16 05:56:56;;;;;;;16.08;8.52;;;-0.10;90.30;;;;;;4991501;28;20197;-66
2022/01/16 05:59:34;;;;;;;23.77;8.68;;;-0.10;90.20;;;;;;4991522;28;20201;-66
2022/01/16 06:02:08;;;;;;;12.90;8.35;;;-0.10;90.10;;;;;;4990814;28;20181;-66
2022/01/16 06:04:46;;;;;;;18.13;7.57;;;-0.20;90.30;;;;;;4991538;28;20195;-66
2022/01/16 06:07:18;;;;;;;13.45;6.78;;;-0.20;90.20;;;;;;4991454;28;20658;-66
2022/01/16 06:09:52;;;;;;;13.15;7.38;;;-0.20;90.00;;;;;;4990952;28;20651;-66
2022/01/16 06:12:21;;;;;;;14.10;6.85;;;-0.30;89.50;;;;;;4990645;28;20593;-66
2022/01/16 06:14:52;;;;;;;14.70;6.75;;;-0.40;89.30;;;;;;4991108;28;20216;-66
2022/01/16 06:17:23;;;;;;;13.13;6.50;;;-0.50;89.60;;;;;;4991126;28;20189;-66
2022/01/16 06:20:00;;;;;;;12.27;6.72;;;-0.50;89.80;;;;;;4991171;28;20201;-66
2022/01/16 06:22:35;;;;;;;9.65;6.63;;;-0.50;89.90;;;;;;4990196;28;20224;-66
2022/01/16 06:25:10;;;;;;;12.57;6.75;;;-0.60;90.00;;;;;;4990988;28;20556;-66
2022/01/16 06:27:51;;;;;;;16.08;7.65;;;-0.60;90.10;;;;;;4993284;28;20505;-67
2022/01/16 06:30:25;;;;;;;13.52;7.68;;;-0.60;90.10;;;;;;4995105;28;20255;-67
2022/01/16 06:32:56;;;;;;;12.50;7.65;;;-0.60;89.80;;;;;;4994276;28;20196;-66
2022/01/16 06:35:25;;;;;;;12.38;7.10;;;-0.60;89.60;;;;;;4994747;28;20196;-66
2022/01/16 06:37:55;;;;;;;13.32;7.78;;;-0.60;89.80;;;;;;4994576;28;20199;-66
2022/01/16 06:40:23;;;;;;;16.13;8.45;;;-0.60;90.10;;;;;;4995027;28;20674;-66
2022/01/16 06:43:03;;;;;;;10.85;7.45;;;-0.60;90.00;;;;;;4994417;28;20188;-66
2022/01/16 06:45:36;;;;;;;9.35;6.80;;;-0.60;89.80;;;;;;4994641;28;20196;-66
2022/01/16 06:48:06;;;;;;;9.95;6.63;;;-0.60;88.90;;;;;;4994274;28;20199;-66
2022/01/16 06:50:45;;;;;;;14.02;8.20;;;-0.60;87.70;;;;;;4994542;28;20207;-66
2022/01/16 06:53:15;;;;;;;15.40;8.20;;;-0.60;87.30;;;;;;4994084;28;20296;-66
2022/01/16 06:55:47;;;;;;;18.90;8.50;;;-0.60;87.70;;;;;;4994473;28;20192;-66
2022/01/16 06:58:17;;;;;;;13.02;7.30;;;-0.70;88.30;;;;;;4994043;28;20197;-66
2022/01/16 07:00:48;;;;;;;15.07;7.70;;;-0.70;88.20;;;;;;4994392;28;20189;-66
2022/01/16 07:03:39;;;;;;;10.10;6.85;;;-0.70;88.60;;;;;;4993836;28;20192;-66
2022/01/16 07:06:21;;;;;;;11.27;6.70;;;-0.70;87.80;;;;;;4994042;28;20215;-66
2022/01/16 07:08:53;;;;;;;16.80;7.40;;;-0.70;87.80;;;;;;4993734;28;20213;-66
2022/01/16 07:11:20;;;;;;;15.23;7.88;;;-0.70;87.30;;;;;;4994075;28;20612;-66
2022/01/16 07:13:48;;;;;;;17.73;7.80;;;-0.70;87.20;;;;;;4993244;28;20648;-66
2022/01/16 07:16:22;;;;;;;15.60;8.02;;;-0.80;87.20;;;;;;4993562;28;20272;-67
2022/01/16 07:18:54;;;;;;;16.60;8.00;;;-0.80;87.30;;;;;;4993697;28;20199;-66
2022/01/16 07:21:28;;;;;;;26.23;7.95;;;-0.80;87.10;;;;;;4993587;28;20197;-67
2022/01/16 07:24:00;;;;;;;14.25;6.88;;;-0.80;87.30;;;;;;4993433;28;20259;-69
2022/01/16 07:26:30;;;;;;;13.90;5.93;;;-0.80;87.90;;;;;;4992790;28;20701;-66
2022/01/16 07:29:03;;;;;;;8.55;5.15;;;-0.80;87.10;;;;;;4974039;28;20217;-66
2022/01/16 07:31:39;;;;;;;20.08;7.10;;;-0.90;86.90;;;;;;4955234;29;20190;-66
2022/01/16 07:34:10;;;;;;;10.57;5.95;;;-1.00;86.20;;;;;;4955071;29;20303;-66
2022/01/16 07:36:45;;;;;;;11.93;7.22;;;-1.10;86.40;;;;;;4955048;29;20237;-66
2022/01/16 07:39:18;;;;;;;9.48;6.63;;;-1.00;86.90;;;;;;4954266;28;20209;-67
2022/01/16 07:41:50;;;;;;;11.55;6.85;;;-1.00;86.60;;;;;;4993084;28;20236;-66
2022/01/16 07:44:27;;;;;;;12.73;8.52;;;-1.00;87.00;;;;;;4993168;28;20204;-70
2022/01/16 07:47:04;;;;;;;17.30;10.30;;;-0.90;86.90;;;;;;4954656;29;20205;-66
2022/01/16 07:49:38;;;;;;;14.23;9.90;;;-0.80;87.10;;;;;;4956923;28;20221;-66
2022/01/16 07:52:13;;;;;;;17.05;10.40;;;-0.60;88.00;;;;;;4993424;28;20201;-66
2022/01/16 07:57:37;;;;;;;14.32;9.73;;;-0.40;87.40;;;;;;4973661;28;20213;-66
2022/01/16 08:00:12;;;;;;;10.65;8.73;;;-0.30;86.90;;;;;;4978027;28;20594;-66
2022/01/16 08:02:57;;;;;;;12.88;7.15;;;-0.20;85.60;;;;;;4993315;28;20193;-66
2022/01/16 08:05:34;;;;;;;12.98;8.02;;;-0.10;85.30;;;;;;4986118;28;20273;-68
2022/01/16 08:08:15;;;;;;;11.13;8.38;;;0.00;84.30;;;;;;4973658;28;20203;-66
2022/01/16 08:10:48;;;;;;;10.80;7.95;;;-0.10;83.80;;;;;;4981563;28;20212;-66
2022/01/16 08:13:21;;;;;;;12.50;7.95;;;-0.10;83.40;;;;;;4992858;28;20189;-66
2022/01/16 08:15:57;;;;;;;18.25;7.90;;;-0.10;83.10;;;;;;4983924;28;20229;-66
2022/01/16 08:18:29;;;;;;;16.92;8.27;;;-0.10;83.00;;;;;;4973481;28;20197;-66
2022/01/16 08:21:01;;;;;;;16.00;8.23;;;0.00;83.30;;;;;;4982350;28;20189;-66
2022/01/16 08:23:32;;;;;;;15.60;8.95;;;0.00;83.70;;;;;;4992952;28;20315;-66
2022/01/16 08:26:04;;;;;;;18.98;10.43;;;-0.10;82.50;;;;;;4983366;28;20190;-66
2022/01/16 08:28:44;;;;;;;14.05;9.73;;;-0.10;81.80;;;;;;4973473;28;20236;-66
2022/01/16 08:31:16;;;;;;;13.77;8.65;;;-0.10;83.40;;;;;;4954259;29;20654;-66
2022/01/16 08:33:49;;;;;;;17.45;9.55;;;0.00;82.60;;;;;;4954164;28;20730;-68
2022/01/16 08:36:32;;;;;;;21.40;10.77;;;0.00;82.80;;;;;;4992676;28;20648;-66
2022/01/16 08:39:07;;;;;;;18.05;13.38;;;0.00;83.20;;;;;;4991188;28;20197;-66
2022/01/16 08:41:42;;;;;;;15.65;10.80;;;0.00;82.80;;;;;;4973122;28;20224;-66
2022/01/16 08:44:19;;;;;;;17.95;10.85;;;0.10;84.40;;;;;;4975108;28;20259;-66
2022/01/16 08:47:06;;;;;;;18.25;11.05;;;0.20;83.90;;;;;;4988067;28;20675;-66
2022/01/16 08:49:51;;;;;;;18.25;10.55;;;0.30;82.20;;;;;;4977201;28;20574;-66
2022/01/16 08:52:27;;;;;;;16.05;9.95;;;0.40;81.50;;;;;;4992092;28;20193;-67
2022/01/16 08:55:01;;;;;;;15.65;9.55;;;0.50;81.00;;;;;;4985280;28;20212;-66
2022/01/16 08:57:42;;;;;;;15.30;9.63;;;0.60;80.20;;;;;;4972520;28;20197;-68
2022/01/16 09:00:16;;;;;;;19.95;10.10;;;0.70;80.70;;;;;;4973666;28;20264;-66
2022/01/16 09:02:51;;;;;;;14.38;9.45;;;1.00;81.60;;;;;;4972901;28;20649;-66
2022/01/16 09:05:23;;;;;;;12.63;9.00;;;1.50;79.20;;;;;;4981291;28;20189;-66
2022/01/16 09:07:54;;;;;;;17.40;10.43;;;2.20;78.40;;;;;;4992127;28;20279;-66
2022/01/16 09:10:37;;;;;;;17.73;9.95;;;2.80;75.00;;;;;;4981635;28;20213;-66
2022/01/16 09:13:11;;;;;;;16.10;10.13;;;3.10;72.10;;;;;;4973124;28;20201;-66
2022/01/16 09:15:50;;;;;;;15.75;9.75;;;3.20;69.00;;;;;;4984818;28;20220;-66
2022/01/16 09:18:29;;;;;;;15.23;10.60;;;3.50;70.00;;;;;;4992592;28;20559;-67
2022/01/16 09:21:01;;;;;;;14.98;10.02;;;3.70;68.10;;;;;;4978349;28;20248;-66
2022/01/16 09:23:38;;;;;;;15.02;9.75;;;3.90;66.00;;;;;;4984129;28;20263;-66
2022/01/16 09:26:10;;;;;;;18.63;9.60;;;4.40;66.90;;;;;;4978194;28;20208;-66
2022/01/16 09:28:42;;;;;;;12.95;9.50;;;5.20;70.10;;;;;;4973528;28;20202;-66
2022/01/16 09:31:16;;;;;;;15.98;11.23;;;6.20;66.50;;;;;;4987563;28;20275;-66
2022/01/16 09:33:51;;;;;;;15.43;10.60;;;7.00;64.90;;;;;;4981541;28;20540;-67
2022/01/16 09:36:28;;;;;;;15.40;10.85;;;7.40;61.20;;;;;;4959717;28;20190;-66
2022/01/16 09:39:17;;;;;;;16.83;10.48;;;7.80;59.00;;;;;;4959509;28;20210;-67
2022/01/16 09:42:02;;;;;;;17.08;11.55;;;8.20;55.70;;;;;;4970424;28;20209;-67
2022/01/16 09:44:44;;;;;;;15.27;10.55;;;8.30;55.40;;;;;;4963691;28;20285;-66
2022/01/16 09:47:12;;;;;;;16.65;11.38;;;8.70;55.40;;;;;;4956515;28;20213;-67
2022/01/16 09:49:57;;;;;;;13.48;11.18;;;8.90;55.20;;;;;;4953886;28;20221;-68
2022/01/16 09:52:25;;;;;;;13.55;9.77;;;9.30;53.60;;;;;;4957642;28;20190;-67
2022/01/16 09:54:58;;;;;;;17.88;11.98;;;9.50;51.80;;;;;;4954089;28;20202;-66
2022/01/16 09:57:27;;;;;;;14.98;11.02;;;9.50;49.50;;;;;;4960772;28;20195;-67
2022/01/16 09:59:57;;;;;;;14.18;10.48;;;9.80;51.20;;;;;;4970670;28;20197;-67
2022/01/16 10:02:25;;;;;;;14.57;11.10;;;10.20;49.20;;;;;;4970803;28;20208;-67
2022/01/16 10:04:53;;;;;;;12.95;10.55;;;10.70;48.80;;;;;;4959457;28;20549;-67
2022/01/16 10:07:21;;;;;;;19.85;15.80;;;11.20;46.50;;;;;;4953923;28;20616;-67
2022/01/16 10:10:06;;;;;;;18.25;13.82;;;11.60;47.20;;;;;;4953789;28;20234;-67
2022/01/16 10:12:40;;;;;;;10.75;8.65;;;12.10;45.60;;;;;;4958781;28;20826;-67
2022/01/16 10:15:20;;;;;;;9.75;8.75;;;12.10;45.10;;;;;;4955929;28;20565;-67
2022/01/16 10:17:49;;;;;;;18.27;15.23;;;12.40;43.60;;;;;;4962792;28;20197;-68
2022/01/16 10:20:23;;;;;;;15.18;11.00;;;12.90;44.20;;;;;;4956188;28;20674;-67
2022/01/16 10:22:58;;;;;;;10.32;8.88;;;13.20;43.50;;;;;;4968707;28;20276;-67
2022/01/16 10:25:41;;;;;;;11.30;9.20;;;13.60;41.50;;;;;;4972805;28;20284;-67
2022/01/16 10:28:34;;;;;;;11.18;9.35;;;13.90;42.60;;;;;;4990623;28;20195;-67
2022/01/16 10:31:06;;;;;;;14.18;12.30;;;14.10;42.30;;;;;;4990629;28;20562;-67
2022/01/16 10:33:35;;;;;;;12.32;9.55;;;14.60;41.10;;;;;;4990252;28;20256;-67
2022/01/16 10:36:03;;;;;;;12.65;11.35;;;15.00;39.90;;;;;;4989325;28;20756;-67
2022/01/16 10:38:39;;;;;;;9.67;8.67;;;15.30;40.10;;;;;;4972840;28;20204;-67
2022/01/16 10:41:24;;;;;;;9.73;8.40;;;15.60;38.00;;;;;;4979583;28;20495;-68
2022/01/16 10:44:03;;;;;;;10.10;7.93;;;15.80;38.20;;;;;;4975664;28;20488;-68
2022/01/16 10:46:36;;;;;;;9.43;8.43;;;16.10;38.80;;;;;;4987025;28;20926;-67
2022/01/16 10:49:20;;;;;;;8.80;7.90;;;16.30;36.70;;;;;;4990982;28;20447;-67
2022/01/16 10:52:09;;;;;;;15.47;11.60;;;16.30;35.80;;;;;;4990422;28;20454;-67
2022/01/16 10:54:39;;;;;;;12.50;10.63;;;16.30;36.00;;;;;;4972490;28;20449;-67
2022/01/16 10:57:23;;;;;;;94.60;43.63;;;16.40;36.60;;;;;;4975196;28;20872;-67
2022/01/16 11:00:08;;;;;;;28.50;17.17;;;16.70;35.70;;;;;;4989878;28;20443;-68
2022/01/16 11:02:52;;;;;;;160.83;68.67;;;16.90;37.30;;;;;;4989072;28;20887;-68
2022/01/16 11:05:22;;;;;;;16.63;14.67;;;17.40;36.60;;;;;;4975329;28;20807;-67
2022/01/16 11:07:58;;;;;;;31.40;20.70;;;17.00;34.50;;;;;;4972809;28;20524;-68
2022/01/16 11:10:28;;;;;;;16.90;12.60;;;17.00;37.00;;;;;;4972785;28;20573;-68
2022/01/16 11:12:57;;;;;;;13.00;11.37;;;17.50;35.60;;;;;;4972955;28;20449;-68
2022/01/16 11:15:26;;;;;;;16.10;11.30;;;17.80;34.40;;;;;;4992734;28;21001;-72
2022/01/16 11:17:53;;;;;;;15.27;12.77;;;17.50;35.10;;;;;;4993785;28;20922;-68
2022/01/16 11:20:27;;;;;;;13.23;11.70;;;17.40;34.60;;;;;;4981394;28;20441;-67
2022/01/16 11:23:00;;;;;;;13.77;11.50;;;17.40;35.20;;;;;;4976213;28;20480;-67
2022/01/16 11:25:33;;;;;;;12.87;9.97;;;17.70;34.70;;;;;;4991888;28;20447;-67
2022/01/16 11:28:03;;;;;;;11.80;10.37;;;18.00;34.30;;;;;;4992773;28;20488;-68
2022/01/16 11:30:34;;;;;;;11.60;8.10;;;18.00;33.50;;;;;;4980911;28;20476;-73
2022/01/16 11:33:05;;;;;;;10.97;9.13;;;18.00;33.60;;;;;;4990267;28;20445;-68
2022/01/16 11:35:34;;;;;;;8.43;6.40;;;18.60;34.30;;;;;;4990289;28;20491;-67
2022/01/16 11:38:03;;;;;;;7.10;5.67;;;19.20;32.60;;;;;;4992589;28;20484;-68
2022/01/16 11:40:42;;;;;;;8.30;6.23;;;19.60;27.80;;;;;;4992992;28;20443;-67
2022/01/16 11:43:22;;;;;;;8.57;5.60;;;19.40;28.00;;;;;;4989411;28;20475;-67
2022/01/16 11:46:15;;;;;;;6.83;5.60;;;19.60;28.40;;;;;;4985767;28;20479;-67
2022/01/16 11:48:53;;;;;;;6.57;4.37;;;19.70;28.00;;;;;;4990130;28;20452;-68
2022/01/16 11:51:52;;;;;;;8.13;5.37;;;19.50;26.90;;;;;;4989745;28;20514;-67
2022/01/16 11:54:34;;;;;;;7.13;5.10;;;19.90;27.10;;;;;;4992539;28;20452;-69
2022/01/16 11:57:21;;;;;;;8.03;5.07;;;20.40;29.40;;;;;;4987107;28;20440;-67
2022/01/16 11:59:50;;;;;;;6.87;5.10;;;20.70;29.30;;;;;;4983212;28;20452;-67
2022/01/16 12:02:27;;;;;;;7.77;5.37;;;21.00;28.40;;;;;;4991460;28;20938;-67
2022/01/16 12:05:01;;;;;;;6.33;4.77;;;21.00;27.60;;;;;;4992456;28;20448;-68
2022/01/16 12:08:00;;;;;;;9.83;7.50;;;21.20;27.80;;;;;;4985671;28;21008;-68
2022/01/16 12:10:59;;;;;;;5.30;3.80;;;21.50;26.90;;;;;;4982256;28;20843;-67
2022/01/16 12:13:57;;;;;;;17.60;11.40;;;21.30;24.30;;;;;;4988201;28;20839;-68
2022/01/16 12:16:43;;;;;;;60.77;42.37;;;21.10;25.20;;;;;;4985590;28;20510;-68
2022/01/16 12:19:46;;;;;;;21.63;16.43;;;21.20;24.90;;;;;;4992706;28;20800;-68
2022/01/16 12:22:43;;;;;;;38.17;33.90;;;21.20;24.30;;;;;;4988937;28;20482;-68
2022/01/16 12:25:20;;;;;;;17.60;15.90;;;21.30;24.70;;;;;;4989982;28;20494;-67
2022/01/16 12:27:55;;;;;;;7.93;6.00;;;21.30;24.90;;;;;;4992267;28;20526;-68
2022/01/16 12:30:41;;;;;;;4.57;3.73;;;21.40;24.70;;;;;;4984096;28;20538;-68
2022/01/16 12:33:27;;;;;;;7.70;4.47;;;21.40;24.30;;;;;;4989227;28;20527;-68
2022/01/16 12:36:13;;;;;;;6.07;3.70;;;21.30;24.30;;;;;;4984539;28;20528;-68
2022/01/16 12:39:05;;;;;;;5.97;4.17;;;21.20;24.40;;;;;;4979636;28;20456;-67
2022/01/16 12:41:38;;;;;;;5.30;3.60;;;21.10;24.40;;;;;;4986705;28;20931;-68
2022/01/16 12:44:08;;;;;;;6.30;3.93;;;21.00;24.60;;;;;;4987269;28;20462;-68
2022/01/16 12:46:41;;;;;;;7.20;4.10;;;20.90;24.40;;;;;;4991290;28;20506;-68
2022/01/16 12:49:18;;;;;;;5.27;3.80;;;20.70;24.60;;;;;;4991251;28;20495;-68
2022/01/16 12:51:50;;;;;;;4.77;3.33;;;20.60;24.70;;;;;;4986983;28;20496;-69
2022/01/16 12:54:23;;;;;;;5.73;4.10;;;20.40;24.90;;;;;;4983432;28;20998;-68
2022/01/16 12:56:51;;;;;;;4.80;3.27;;;20.30;24.80;;;;;;4984401;28;20444;-68
2022/01/16 12:59:24;;;;;;;6.73;3.50;;;20.30;25.30;;;;;;4990864;28;20521;-68
2022/01/16 13:01:54;;;;;;;4.43;3.03;;;20.20;25.20;;;;;;4991398;28;20444;-68
2022/01/16 13:04:30;;;;;;;5.63;4.27;;;20.00;25.40;;;;;;4986229;28;20804;-68
2022/01/16 13:07:04;;;;;;;5.07;3.20;;;19.80;25.30;;;;;;4987109;28;20479;-67
2022/01/16 13:09:32;;;;;;;4.10;2.70;;;19.60;25.30;;;;;;4991420;28;20476;-68
2022/01/16 13:12:01;;;;;;;4.30;3.50;;;19.20;25.60;;;;;;4979936;28;20886;-67
2022/01/16 13:14:31;;;;;;;4.03;3.20;;;19.10;26.20;;;;;;4990252;28;20494;-68
2022/01/16 13:17:05;;;;;;;8.20;7.40;;;19.00;26.00;;;;;;4982211;28;20926;-68
2022/01/16 13:19:40;;;;;;;3.73;3.30;;;18.70;26.30;;;;;;4990571;28;20472;-67
2022/01/16 13:22:23;;;;;;;4.87;3.87;;;18.40;26.90;;;;;;4988019;28;20435;-68
2022/01/16 13:24:51;;;;;;;4.00;2.90;;;18.30;27.30;;;;;;4985555;28;20506;-68
2022/01/16 13:27:26;;;;;;;3.50;2.43;;;17.90;27.10;;;;;;4983398;28;20460;-68
2022/01/16 13:29:58;;;;;;;3.87;1.97;;;17.60;27.20;;;;;;4987928;28;20490;-67
2022/01/16 13:32:33;;;;;;;7.73;6.30;;;17.40;27.80;;;;;;4987327;28;20559;-68
2022/01/16 13:35:04;;;;;;;13.23;10.47;;;17.20;27.60;;;;;;4979151;28;20444;-67
2022/01/16 13:37:36;;;;;;;27.53;20.67;;;17.20;28.30;;;;;;4989793;28;20443;-68
2022/01/16 13:40:08;;;;;;;15.87;11.70;;;17.10;28.30;;;;;;4985813;28;20440;-69
2022/01/16 13:42:41;;;;;;;4.50;3.60;;;17.10;28.40;;;;;;4989448;28;21362;-67
2022/01/16 13:45:38;;;;;;;4.60;3.23;;;17.10;28.20;;;;;;4990607;28;20448;-68
2022/01/16 13:48:08;;;;;;;3.00;1.90;;;16.90;27.90;;;;;;4987775;28;20932;-67
2022/01/16 13:50:41;;;;;;;3.23;2.37;;;16.50;28.30;;;;;;4989989;28;20444;-68
2022/01/16 13:53:18;;;;;;;3.90;1.90;;;16.20;28.60;;;;;;4990483;28;20455;-68
2022/01/16 13:55:52;;;;;;;4.50;2.13;;;16.00;28.60;;;;;;4986579;28;20444;-68
2022/01/16 13:58:23;;;;;;;3.80;2.07;;;15.70;29.30;;;;;;4989811;28;20451;-69
2022/01/16 14:00:52;;;;;;;3.60;2.00;;;15.60;29.50;;;;;;4986705;28;20491;-68
2022/01/16 14:03:23;;;;;;;4.27;2.60;;;15.40;30.00;;;;;;4986069;28;20479;-67
2022/01/16 14:05:52;;;;;;;6.57;2.10;;;15.30;30.00;;;;;;4982970;28;20447;-67
2022/01/16 14:08:26;;;;;;;4.00;2.20;;;15.20;30.30;;;;;;4989979;28;20439;-70
2022/01/16 14:11:12;;;;;;;3.30;2.10;;;15.20;30.20;;;;;;4990361;28;20501;-67